createdAt,value
2018-10-19T00:01:32.958Z,64.40
2018-10-19T00:04:01.121Z,62.10
2018-10-19T00:06:28.711Z,61.80
2018-10-19T00:08:56.353Z,62.40
2018-10-19T00:11:24.005Z,63.90
2018-10-19T00:13:51.584Z,64.50
2018-10-19T00:16:19.209Z,64.50
2018-10-19T00:18:46.880Z,62.80
2018-10-19T00:21:14.554Z,62.80
2018-10-19T00:23:42.063Z,62.90
2018-10-19T00:26:09.602Z,63.90
2018-10-19T00:28:37.265Z,64.10
2018-10-19T00:31:04.973Z,64.00
2018-10-19T00:33:32.538Z,64.30
2018-10-19T00:36:00.238Z,63.80
2018-10-19T00:38:27.846Z,63.60
2018-10-19T00:40:55.526Z,63.30
2018-10-19T00:43:23.090Z,63.40
2018-10-19T00:45:50.630Z,63.20
2018-10-19T00:48:19.182Z,63.80
2018-10-19T00:50:46.835Z,64.40
2018-10-19T00:53:14.804Z,65.40
2018-10-19T00:55:42.325Z,64.80
2018-10-19T00:58:09.941Z,64.30
2018-10-19T01:00:39.427Z,63.30
2018-10-19T01:03:07.489Z,63.00
2018-10-19T01:05:35.897Z,64.10
2018-10-19T01:08:03.571Z,64.90
2018-10-19T01:10:31.138Z,63.70
2018-10-19T01:12:59.305Z,65.00
2018-10-19T01:15:28.059Z,65.00
2018-10-19T01:17:55.754Z,67.30
2018-10-19T01:20:23.425Z,65.70
2018-10-19T01:22:51.067Z,63.90
2018-10-19T01:25:18.662Z,65.50
2018-10-19T01:27:46.210Z,65.40
2018-10-19T01:30:13.929Z,63.20
2018-10-19T01:32:41.469Z,64.10
2018-10-19T01:35:11.212Z,65.50
2018-10-19T01:37:39.026Z,63.90
2018-10-19T01:40:09.138Z,64.30
2018-10-19T01:42:36.842Z,65.00
2018-10-19T01:45:05.585Z,65.90
2018-10-19T01:47:33.094Z,65.20
2018-10-19T01:50:00.620Z,65.30
2018-10-19T01:52:28.255Z,65.00
2018-10-19T01:54:55.874Z,64.70
2018-10-19T01:57:23.590Z,65.20
2018-10-19T01:59:51.493Z,66.10
2018-10-19T02:02:19.236Z,64.70
2018-10-19T02:04:46.892Z,64.50
2018-10-19T02:07:14.525Z,64.10
2018-10-19T02:09:42.893Z,65.10
2018-10-19T02:12:10.474Z,65.50
2018-10-19T02:14:38.483Z,65.10
2018-10-19T02:17:06.320Z,64.30
2018-10-19T02:19:33.974Z,64.40
2018-10-19T02:22:01.678Z,65.20
2018-10-19T02:24:29.241Z,67.80
2018-10-19T02:26:56.847Z,66.30
2018-10-19T02:29:24.370Z,67.60
2018-10-19T02:31:51.946Z,65.80
2018-10-19T02:34:19.591Z,67.50
2018-10-19T02:36:47.301Z,66.40
2018-10-19T02:39:14.884Z,67.30
2018-10-19T02:41:42.810Z,67.00
2018-10-19T02:44:10.466Z,66.70
2018-10-19T02:46:38.038Z,66.90
2018-10-19T02:49:05.678Z,67.60
2018-10-19T02:51:33.249Z,67.10
2018-10-19T02:54:00.817Z,67.20
2018-10-19T02:56:28.433Z,67.90
2018-10-19T02:58:56.033Z,65.90
2018-10-19T03:01:23.642Z,66.50
2018-10-19T03:03:51.181Z,66.90
2018-10-19T03:06:18.830Z,66.60
2018-10-19T03:08:46.418Z,67.20
2018-10-19T03:11:14.147Z,68.50
2018-10-19T03:13:41.654Z,67.40
2018-10-19T03:16:09.442Z,65.80
2018-10-19T03:18:37.100Z,67.40
2018-10-19T03:21:05.224Z,67.40
2018-10-19T03:23:32.853Z,68.00
2018-10-19T03:26:00.547Z,68.80
2018-10-19T03:28:28.088Z,68.40
2018-10-19T03:30:55.785Z,69.10
2018-10-19T03:33:23.343Z,66.50
2018-10-19T03:35:50.891Z,67.00
2018-10-19T03:38:18.527Z,66.20
2018-10-19T03:40:46.086Z,66.20
2018-10-19T03:43:13.625Z,64.90
2018-10-19T03:45:41.331Z,66.70
2018-10-19T03:48:08.857Z,68.70
2018-10-19T03:50:36.510Z,68.50
2018-10-19T03:53:04.708Z,68.30
2018-10-19T03:55:32.216Z,65.80
2018-10-19T03:57:59.789Z,65.90
2018-10-19T04:00:27.499Z,66.00
2018-10-19T04:02:55.334Z,66.20
2018-10-19T04:05:23.790Z,67.00
2018-10-19T04:07:51.377Z,68.30
2018-10-19T04:10:18.950Z,68.30
2018-10-19T04:12:46.633Z,67.10
2018-10-19T04:15:14.197Z,69.10
2018-10-19T04:17:41.745Z,67.70
2018-10-19T04:20:09.417Z,68.70
2018-10-19T04:22:37.250Z,69.00
2018-10-19T04:25:04.970Z,68.20
2018-10-19T04:27:32.533Z,66.10
2018-10-19T04:30:00.250Z,69.00
2018-10-19T04:32:28.170Z,69.60
2018-10-19T04:34:55.803Z,70.60
2018-10-19T04:37:23.291Z,70.80
2018-10-19T04:39:50.966Z,68.60
2018-10-19T04:42:18.672Z,69.80
2018-10-19T04:44:46.267Z,68.90
2018-10-19T04:47:14.090Z,70.90
2018-10-19T04:49:41.542Z,69.80
2018-10-19T04:52:09.185Z,67.10
2018-10-19T04:54:36.917Z,69.20
2018-10-19T04:57:04.886Z,67.90
2018-10-19T04:59:32.402Z,69.30
2018-10-19T05:01:59.963Z,68.00
2018-10-19T05:04:27.631Z,68.10
2018-10-19T05:06:55.163Z,68.40
2018-10-19T05:09:22.729Z,67.50
2018-10-19T05:11:50.327Z,68.10
2018-10-19T05:14:17.912Z,70.20
2018-10-19T05:16:45.441Z,70.10
2018-10-19T05:19:13.042Z,69.30
2018-10-19T05:21:40.646Z,69.30
2018-10-19T05:24:08.321Z,71.00
2018-10-19T05:26:36.061Z,68.20
2018-10-19T05:29:04.112Z,69.00
2018-10-19T05:31:31.785Z,68.40
2018-10-19T05:33:59.444Z,68.80
2018-10-19T05:36:27.072Z,68.10
2018-10-19T05:38:54.622Z,69.10
2018-10-19T05:41:22.238Z,67.70
2018-10-19T05:43:49.831Z,68.80
2018-10-19T05:46:17.553Z,69.00
2018-10-19T05:48:45.194Z,67.90
2018-10-19T05:51:12.776Z,68.00
2018-10-19T05:53:40.342Z,69.00
2018-10-19T05:56:08.460Z,68.30
2018-10-19T05:58:36.366Z,68.70
2018-10-19T06:01:04.350Z,70.40
2018-10-19T06:03:32.006Z,68.30
2018-10-19T06:05:59.643Z,69.80
2018-10-19T06:08:27.224Z,68.70
2018-10-19T06:10:54.869Z,67.90
2018-10-19T06:13:22.470Z,69.20
2018-10-19T06:15:50.042Z,69.80
2018-10-19T06:18:17.721Z,69.80
2018-10-19T06:20:45.421Z,69.60
2018-10-19T06:23:13.233Z,68.50
2018-10-19T06:25:40.766Z,68.10
2018-10-19T06:28:08.386Z,68.10
2018-10-19T06:30:36.049Z,67.00
2018-10-19T06:33:03.578Z,68.40
2018-10-19T06:35:31.187Z,67.10
2018-10-19T06:37:58.796Z,67.30
2018-10-19T06:40:26.346Z,67.20
2018-10-19T06:42:53.961Z,67.40
2018-10-19T06:45:21.656Z,66.80
2018-10-19T06:47:49.225Z,68.00
2018-10-19T06:50:17.191Z,69.20
2018-10-19T06:52:44.766Z,70.20
2018-10-19T06:55:15.172Z,67.90
2018-10-19T06:57:42.893Z,68.60
2018-10-19T07:00:10.793Z,68.00
2018-10-19T07:02:38.362Z,66.40
2018-10-19T07:05:05.967Z,67.70
2018-10-19T07:07:33.687Z,65.70
2018-10-19T07:10:01.464Z,67.90
2018-10-19T07:12:29.166Z,67.20
2018-10-19T07:14:56.718Z,66.00
2018-10-19T07:17:24.367Z,67.90
2018-10-19T07:19:51.939Z,66.40
2018-10-19T07:22:19.589Z,65.10
2018-10-19T07:24:47.161Z,64.40
2018-10-19T07:27:14.738Z,64.50
2018-10-19T07:29:42.347Z,65.20
2018-10-19T07:32:09.997Z,63.20
2018-10-19T07:34:37.469Z,63.90
2018-10-19T07:37:05.133Z,65.80
2018-10-19T07:39:32.794Z,65.60
2018-10-19T07:42:00.435Z,66.10
2018-10-19T07:44:27.939Z,64.20
2018-10-19T07:46:55.589Z,66.40
2018-10-19T07:49:23.134Z,64.80
2018-10-19T07:51:50.669Z,64.20
2018-10-19T07:54:18.405Z,63.50
2018-10-19T07:56:46.019Z,62.00
2018-10-19T07:59:13.803Z,63.40
2018-10-19T08:01:41.282Z,63.60
2018-10-19T08:04:08.882Z,62.10
2018-10-19T08:06:36.470Z,63.20
2018-10-19T08:09:07.274Z,61.30
2018-10-19T08:11:34.939Z,62.40
2018-10-19T08:14:02.400Z,63.30
2018-10-19T08:16:29.931Z,61.70
2018-10-19T08:18:57.546Z,61.40
2018-10-19T08:21:25.211Z,61.20
2018-10-19T08:23:52.903Z,59.80
2018-10-19T08:26:20.505Z,62.50
2018-10-19T08:28:48.178Z,62.40
2018-10-19T08:31:15.855Z,62.80
2018-10-19T08:33:43.647Z,60.20
2018-10-19T08:36:11.305Z,61.50
2018-10-19T08:38:38.961Z,61.20
2018-10-19T08:41:06.627Z,59.10
2018-10-19T08:43:34.274Z,58.90
2018-10-19T08:46:07.436Z,59.90
2018-10-19T08:48:35.135Z,60.50
2018-10-19T08:51:02.718Z,59.40
2018-10-19T08:53:30.353Z,59.80
2018-10-19T08:55:57.954Z,58.40
2018-10-19T08:58:25.584Z,57.80
2018-10-19T09:00:53.198Z,59.30
2018-10-19T09:03:20.828Z,59.50
2018-10-19T09:05:48.366Z,59.20
2018-10-19T09:08:15.909Z,59.10
2018-10-19T09:10:43.504Z,59.70
2018-10-19T09:13:11.042Z,56.70
2018-10-19T09:15:38.617Z,56.70
2018-10-19T09:18:06.241Z,56.70
2018-10-19T09:20:33.849Z,57.10
2018-10-19T09:23:01.444Z,57.30
2018-10-19T09:25:28.990Z,59.10
2018-10-19T09:27:56.549Z,59.30
2018-10-19T09:30:24.124Z,58.40
2018-10-19T09:32:51.719Z,55.90
2018-10-19T09:35:19.364Z,55.80
2018-10-19T09:37:46.798Z,55.80
2018-10-19T09:40:14.451Z,56.50
2018-10-19T09:42:42.005Z,57.90
2018-10-19T09:45:09.692Z,58.20
2018-10-19T09:47:37.256Z,57.40
2018-10-19T09:50:05.269Z,56.20
2018-10-19T09:52:32.831Z,56.30
2018-10-19T09:55:00.432Z,56.70
2018-10-19T09:57:27.974Z,55.20
2018-10-19T09:59:55.569Z,55.40
2018-10-19T10:02:23.138Z,54.70
2018-10-19T10:04:50.667Z,54.50
2018-10-19T10:07:18.231Z,54.70
2018-10-19T10:09:45.768Z,55.70
2018-10-19T10:12:13.313Z,54.50
2018-10-19T10:14:40.989Z,54.70
2018-10-19T10:17:08.474Z,54.00
2018-10-19T10:19:36.031Z,54.20
2018-10-19T10:22:03.671Z,54.20
2018-10-19T10:24:31.201Z,54.30
2018-10-19T10:26:58.759Z,55.00
2018-10-19T10:29:26.334Z,54.10
2018-10-19T10:31:53.950Z,54.20
2018-10-19T10:34:21.491Z,54.30
2018-10-19T10:36:49.063Z,55.10
2018-10-19T10:39:16.738Z,55.40
2018-10-19T10:41:44.205Z,55.60
2018-10-19T10:44:11.775Z,55.90
2018-10-19T10:46:39.326Z,54.30
2018-10-19T10:49:06.943Z,53.00
2018-10-19T10:51:34.521Z,52.30
2018-10-19T10:54:02.062Z,51.80
2018-10-19T10:56:29.601Z,53.60
2018-10-19T10:58:57.110Z,52.10
2018-10-19T11:01:24.645Z,51.90
2018-10-19T11:03:52.262Z,51.80
2018-10-19T11:06:19.826Z,49.10
2018-10-19T11:08:47.424Z,45.40
2018-10-19T11:11:15.346Z,42.50
2018-10-19T11:13:43.405Z,41.50
2018-10-19T11:16:12.019Z,40.40
2018-10-19T11:18:39.786Z,40.70
2018-10-19T11:21:07.455Z,41.70
2018-10-19T11:23:35.084Z,43.80
2018-10-19T11:26:03.015Z,45.20
2018-10-19T11:28:30.784Z,47.60
2018-10-19T11:30:58.500Z,45.60
2018-10-19T11:33:26.119Z,45.30
2018-10-19T11:35:53.658Z,46.20
2018-10-19T11:38:21.487Z,46.80
2018-10-19T11:40:49.034Z,48.10
2018-10-19T11:43:16.709Z,48.30
2018-10-19T11:45:44.254Z,47.10
2018-10-19T11:48:11.829Z,45.30
2018-10-19T11:50:39.536Z,47.40
2018-10-19T11:53:07.267Z,48.60
2018-10-19T11:55:34.865Z,48.50
2018-10-19T11:58:02.632Z,49.00
2018-10-19T12:00:30.335Z,49.50
2018-10-19T12:02:58.048Z,49.00
2018-10-19T12:05:25.681Z,48.70
2018-10-19T12:07:53.236Z,49.90
2018-10-19T12:10:20.811Z,49.70
2018-10-19T12:12:49.005Z,49.00
2018-10-19T12:15:17.121Z,49.70
2018-10-19T12:17:45.046Z,50.30
2018-10-19T12:20:13.763Z,50.60
2018-10-19T12:22:41.372Z,50.70
2018-10-19T12:25:09.883Z,50.00
2018-10-19T12:27:37.678Z,50.10
2018-10-19T12:30:05.612Z,51.00
2018-10-19T12:32:33.165Z,50.90
2018-10-19T12:35:00.745Z,51.00
2018-10-19T12:37:28.292Z,50.00
2018-10-19T12:39:55.834Z,50.30
2018-10-19T12:42:23.448Z,50.80
2018-10-19T12:44:51.008Z,49.70
2018-10-19T12:47:38.729Z,49.70
2018-10-19T12:50:06.436Z,49.10
2018-10-19T12:52:34.016Z,50.10
2018-10-19T12:55:01.722Z,50.80
2018-10-19T12:57:29.315Z,50.50
2018-10-19T12:59:56.901Z,49.60
2018-10-19T13:02:24.477Z,49.50
2018-10-19T13:04:52.027Z,50.80
2018-10-19T13:07:19.882Z,50.60
2018-10-19T13:09:48.578Z,50.30
2018-10-19T13:12:16.266Z,50.20
2018-10-19T13:14:43.897Z,49.90
2018-10-19T13:17:11.507Z,50.10
2018-10-19T13:19:39.125Z,50.10
2018-10-19T13:22:06.725Z,51.10
2018-10-19T13:24:34.314Z,51.50
2018-10-19T13:27:01.891Z,50.10
2018-10-19T13:29:29.444Z,49.60
2018-10-19T13:31:57.110Z,50.50
2018-10-19T13:34:24.662Z,51.50
2018-10-19T13:36:52.248Z,51.30
2018-10-19T13:39:19.826Z,51.90
2018-10-19T13:41:47.458Z,51.80
2018-10-19T13:44:15.018Z,52.20
2018-10-19T13:46:42.619Z,52.90
2018-10-19T13:49:10.210Z,52.60
2018-10-19T13:51:37.797Z,52.50
2018-10-19T13:54:05.383Z,52.70
2018-10-19T13:56:33.138Z,52.80
2018-10-19T13:59:00.819Z,52.20
2018-10-19T14:01:28.593Z,51.80
2018-10-19T14:03:56.218Z,52.90
2018-10-19T14:06:23.786Z,52.00
2018-10-19T14:08:51.377Z,51.00
2018-10-19T14:11:19.066Z,50.90
2018-10-19T14:13:46.646Z,52.30
2018-10-19T14:16:14.242Z,52.00
2018-10-19T14:18:41.811Z,52.70
2018-10-19T14:21:09.512Z,53.20
2018-10-19T14:23:36.990Z,53.00
2018-10-19T14:26:04.630Z,52.60
2018-10-19T14:28:32.166Z,53.00
2018-10-19T14:30:59.771Z,53.70
2018-10-19T14:33:27.406Z,53.80
2018-10-19T14:35:54.946Z,53.20
2018-10-19T14:38:22.509Z,53.20
2018-10-19T14:40:50.153Z,54.10
2018-10-19T14:43:17.752Z,53.00
2018-10-19T14:45:45.303Z,53.60
2018-10-19T14:48:12.864Z,53.80
2018-10-19T14:50:40.434Z,53.80
2018-10-19T14:53:08.064Z,53.60
2018-10-19T14:55:35.620Z,53.30
2018-10-19T14:58:03.229Z,53.90
2018-10-19T15:00:30.794Z,54.00
2018-10-19T15:02:58.387Z,53.80
2018-10-19T15:05:25.927Z,53.90
2018-10-19T15:07:53.506Z,55.00
2018-10-19T15:10:21.861Z,54.50
2018-10-19T15:12:49.294Z,53.40
2018-10-19T15:15:19.927Z,54.50
2018-10-19T15:17:47.653Z,54.60
2018-10-19T15:20:15.789Z,54.30
2018-10-19T15:22:43.615Z,55.00
2018-10-19T15:25:11.606Z,55.10
2018-10-19T15:27:40.486Z,54.80
2018-10-19T15:30:09.328Z,55.40
2018-10-19T15:32:37.003Z,55.10
2018-10-19T15:35:05.485Z,54.70
2018-10-19T15:37:33.258Z,55.20
2018-10-19T15:40:00.925Z,55.20
2018-10-19T15:42:28.698Z,55.40
2018-10-19T15:44:56.332Z,55.70
2018-10-19T15:47:26.050Z,56.60
2018-10-19T15:49:54.457Z,56.40
2018-10-19T15:52:22.217Z,56.00
2018-10-19T15:54:49.802Z,55.50
2018-10-19T15:57:17.457Z,56.50
2018-10-19T15:59:44.994Z,56.00
2018-10-19T16:02:12.702Z,56.10
2018-10-19T16:04:40.258Z,56.50
2018-10-19T16:07:07.855Z,56.40
2018-10-19T16:09:35.487Z,56.40
2018-10-19T16:12:03.133Z,56.40
2018-10-19T16:14:30.642Z,56.50
2018-10-19T16:16:58.309Z,56.90
2018-10-19T16:19:25.858Z,57.10
2018-10-19T16:21:53.486Z,57.10
2018-10-19T16:27:12.423Z,57.00
2018-10-19T16:29:39.893Z,57.10
2018-10-19T16:32:07.518Z,57.30
2018-10-19T16:34:35.108Z,57.90
2018-10-19T16:37:02.717Z,58.20
2018-10-19T16:39:30.322Z,58.60
2018-10-19T16:41:58.106Z,58.40
2018-10-19T16:44:25.776Z,59.20
2018-10-19T16:46:53.467Z,58.90
2018-10-19T16:49:21.174Z,58.90
2018-10-19T16:51:48.787Z,59.30
2018-10-19T16:54:16.425Z,58.60
2018-10-19T16:56:48.959Z,58.60
2018-10-19T16:59:17.392Z,59.10
2018-10-19T17:01:44.957Z,59.10
2018-10-19T17:04:12.525Z,59.00
2018-10-19T17:06:40.123Z,59.60
2018-10-19T17:09:12.171Z,59.80
2018-10-19T17:11:39.993Z,59.70
2018-10-19T17:14:08.071Z,59.40
2018-10-19T17:16:35.919Z,59.30
2018-10-19T17:19:03.570Z,59.30
2018-10-19T17:21:31.174Z,60.00
2018-10-19T17:23:58.893Z,59.90
2018-10-19T17:26:26.294Z,59.80
2018-10-19T17:28:54.020Z,60.00
2018-10-19T17:31:21.589Z,60.00
2018-10-19T17:33:49.377Z,60.20
2018-10-19T17:36:16.911Z,60.70
2018-10-19T17:38:44.494Z,60.70
2018-10-19T17:41:12.129Z,60.60
2018-10-19T17:43:39.673Z,61.00
2018-10-19T17:46:07.282Z,60.90
2018-10-19T17:48:34.850Z,61.20
2018-10-19T17:51:02.600Z,60.60
2018-10-19T17:53:30.141Z,60.70
2018-10-19T17:55:57.717Z,60.00
2018-10-19T17:58:25.282Z,61.20
2018-10-19T18:00:52.859Z,60.00
2018-10-19T18:03:20.446Z,59.90
2018-10-19T18:05:48.071Z,60.00
2018-10-19T18:08:15.635Z,59.90
2018-10-19T18:10:48.210Z,60.00
2018-10-19T18:13:15.833Z,60.00
2018-10-19T18:15:43.509Z,60.00
2018-10-19T18:18:11.127Z,60.00
2018-10-19T18:20:47.524Z,60.40
2018-10-19T18:23:15.379Z,60.00
2018-10-19T18:25:42.690Z,59.80
2018-10-19T18:28:10.259Z,60.30
2018-10-19T18:30:47.669Z,61.10
2018-10-19T18:33:15.292Z,61.50
2018-10-19T18:35:42.910Z,61.70
2018-10-19T18:38:10.727Z,60.60
2018-10-19T18:40:47.936Z,62.10
2018-10-19T18:43:15.594Z,61.70
2018-10-19T18:45:43.184Z,61.90
2018-10-19T18:48:10.856Z,61.50
2018-10-19T18:50:48.185Z,62.20
2018-10-19T18:56:12.226Z,61.60
2018-10-19T18:58:39.773Z,61.80
2018-10-19T19:01:07.437Z,62.10
2018-10-19T19:03:35.171Z,62.80
2018-10-19T19:06:02.808Z,62.50
2018-10-19T19:08:30.582Z,62.20
2018-10-19T19:10:58.183Z,61.20
2018-10-19T19:13:27.843Z,62.10
2018-10-19T19:15:55.574Z,62.60
2018-10-19T19:18:23.287Z,63.90
2018-10-19T19:20:51.020Z,63.60
2018-10-19T19:23:18.627Z,63.10
2018-10-19T19:25:52.074Z,61.90
2018-10-19T19:28:19.657Z,62.20
2018-10-19T19:30:47.369Z,62.80
2018-10-19T19:33:20.758Z,62.60
2018-10-19T19:35:48.581Z,63.10
2018-10-19T19:38:16.323Z,63.70
2018-10-19T19:40:49.705Z,62.70
2018-10-19T19:43:17.283Z,63.60
2018-10-19T19:45:44.923Z,63.80
2018-10-19T19:48:18.234Z,63.60
2018-10-19T19:50:45.863Z,64.30
2018-10-19T19:53:13.558Z,63.30
2018-10-19T19:55:41.091Z,64.40
2018-10-19T19:58:08.641Z,64.30
2018-10-19T20:00:36.310Z,63.50
2018-10-19T20:03:04.059Z,64.90
2018-10-19T20:05:31.700Z,65.40
2018-10-19T20:07:59.327Z,64.70
2018-10-19T20:10:26.922Z,63.70
2018-10-19T20:12:54.526Z,63.50
2018-10-19T20:15:22.130Z,63.50
2018-10-19T20:17:49.755Z,64.60
2018-10-19T20:20:17.407Z,64.70
2018-10-19T20:22:45.010Z,63.50
2018-10-19T20:25:12.706Z,63.50
2018-10-19T20:27:40.754Z,65.60
2018-10-19T20:30:09.987Z,66.00
2018-10-19T20:32:38.168Z,66.00
2018-10-19T20:35:05.907Z,65.40
2018-10-19T20:40:47.026Z,65.80
2018-10-19T20:55:02.554Z,65.70
2018-10-19T20:57:48.038Z,65.60
2018-10-19T21:12:03.878Z,64.70
2018-10-19T21:31:57.719Z,66.00
2018-10-19T21:34:46.342Z,66.50
2018-10-19T21:51:56.388Z,65.30
2018-10-19T21:54:46.846Z,67.70
2018-10-19T22:14:46.922Z,67.40
2018-10-19T22:17:14.557Z,68.70
2018-10-19T22:19:47.593Z,66.50
2018-10-19T22:30:53.417Z,65.80
2018-10-19T22:42:07.340Z,68.50
2018-10-19T22:47:46.702Z,68.60
2018-10-19T23:02:00.298Z,66.70
2018-10-19T23:04:47.126Z,66.80
2018-10-19T23:21:57.203Z,68.20
2018-10-19T23:24:46.778Z,68.80
2018-10-19T23:39:00.366Z,67.30
2018-10-19T23:41:46.889Z,68.60
2018-10-19T23:47:11.054Z,67.70
2018-10-19T23:49:48.427Z,68.40
2018-10-19T23:54:55.480Z,70.30
2018-10-19T23:57:23.037Z,69.00
2018-10-19T23:59:50.603Z,68.80
